createdAt,value
2018-06-23T00:00:57.535Z,10.97
2018-06-23T00:03:28.804Z,11.26
2018-06-23T00:06:00.113Z,11.17
2018-06-23T00:08:31.206Z,11.23
2018-06-23T00:11:02.689Z,11.08
2018-06-23T00:13:34.088Z,11.28
2018-06-23T00:16:05.514Z,11.20
2018-06-23T00:18:36.473Z,11.07
2018-06-23T00:21:07.620Z,10.99
2018-06-23T00:23:38.694Z,10.74
2018-06-23T00:26:14.777Z,10.71
2018-06-23T00:28:46.382Z,10.86
2018-06-23T00:31:17.730Z,10.88
2018-06-23T00:33:48.779Z,10.89
2018-06-23T00:36:19.960Z,10.84
2018-06-23T00:38:51.070Z,10.80
2018-06-23T00:41:22.596Z,10.71
2018-06-23T00:43:53.717Z,10.72
2018-06-23T00:46:25.000Z,10.66
2018-06-23T00:48:56.166Z,11.00
2018-06-23T00:51:27.694Z,11.02
2018-06-23T00:53:58.793Z,10.88
2018-06-23T00:56:30.025Z,10.56
2018-06-23T00:59:11.672Z,10.54
2018-06-23T01:01:43.117Z,10.42
2018-06-23T01:04:14.424Z,10.37
2018-06-23T01:06:45.798Z,10.26
2018-06-23T01:09:16.756Z,10.50
2018-06-23T01:11:47.875Z,10.36
2018-06-23T01:14:19.034Z,10.38
2018-06-23T01:16:50.103Z,10.73
2018-06-23T01:19:21.202Z,10.44
2018-06-23T01:21:52.277Z,10.66
2018-06-23T01:24:23.430Z,10.54
2018-06-23T01:26:54.969Z,10.44
2018-06-23T01:29:26.170Z,10.79
2018-06-23T01:31:57.697Z,10.29
2018-06-23T01:34:28.678Z,10.38
2018-06-23T01:37:00.059Z,10.38
2018-06-23T01:39:31.266Z,10.44
2018-06-23T01:42:02.237Z,10.43
2018-06-23T01:44:33.377Z,10.22
2018-06-23T01:47:04.618Z,10.27
2018-06-23T01:49:35.645Z,10.48
2018-06-23T01:52:06.726Z,10.53
2018-06-23T01:54:37.861Z,10.44
2018-06-23T01:57:09.377Z,10.46
2018-06-23T01:59:40.394Z,10.29
2018-06-23T02:02:11.748Z,10.29
2018-06-23T02:04:42.987Z,10.12
2018-06-23T02:07:14.453Z,10.28
2018-06-23T02:09:45.479Z,10.25
2018-06-23T02:12:16.659Z,10.34
2018-06-23T02:14:52.744Z,10.39
2018-06-23T02:17:29.141Z,10.28
2018-06-23T02:20:05.286Z,10.26
2018-06-23T02:22:41.533Z,10.42
2018-06-23T02:25:17.427Z,10.49
2018-06-23T02:27:53.589Z,10.68
2018-06-23T02:32:33.717Z,10.61
2018-06-23T02:35:06.908Z,10.53
2018-06-23T02:37:39.550Z,10.82
2018-06-23T02:40:10.782Z,10.84
2018-06-23T02:42:41.801Z,10.62
2018-06-23T02:45:12.983Z,10.39
2018-06-23T02:47:44.124Z,10.14
2018-06-23T02:50:15.346Z,10.60
2018-06-23T02:52:46.415Z,10.77
2018-06-23T02:55:17.483Z,10.73
2018-06-23T02:57:48.613Z,10.77
2018-06-23T03:00:19.801Z,10.88
2018-06-23T03:02:50.977Z,10.92
2018-06-23T03:05:22.567Z,10.82
2018-06-23T03:07:53.676Z,11.02
2018-06-23T03:10:24.925Z,10.91
2018-06-23T03:12:56.057Z,10.69
2018-06-23T03:15:27.552Z,10.68
2018-06-23T03:17:58.736Z,10.73
2018-06-23T03:20:31.892Z,10.90
2018-06-23T03:23:03.046Z,10.77
2018-06-23T03:25:34.297Z,10.51
2018-06-23T03:28:06.497Z,10.43
2018-06-23T03:30:38.337Z,10.78
2018-06-23T03:33:11.041Z,10.59
2018-06-23T03:35:42.118Z,10.35
2018-06-23T03:38:13.217Z,10.26
2018-06-23T03:40:44.891Z,10.29
2018-06-23T03:43:16.010Z,10.43
2018-06-23T03:45:49.358Z,10.32
2018-06-23T03:48:20.558Z,10.27
2018-06-23T03:50:51.913Z,10.25
2018-06-23T03:53:23.105Z,10.10
2018-06-23T03:55:54.210Z,10.43
2018-06-23T03:58:25.334Z,10.55
2018-06-23T04:00:56.883Z,10.66
2018-06-23T04:03:28.655Z,10.75
2018-06-23T04:06:00.152Z,10.84
2018-06-23T04:08:31.392Z,10.73
2018-06-23T04:11:02.802Z,11.05
2018-06-23T04:13:34.218Z,11.20
2018-06-23T04:16:05.482Z,10.92
2018-06-23T04:18:36.519Z,10.62
2018-06-23T04:21:07.862Z,10.79
2018-06-23T04:23:38.973Z,10.82
2018-06-23T04:26:10.115Z,10.87
2018-06-23T04:28:41.157Z,11.04
2018-06-23T04:31:12.353Z,10.86
2018-06-23T04:33:44.000Z,10.99
2018-06-23T04:36:15.853Z,11.08
2018-06-23T04:38:47.163Z,11.20
2018-06-23T04:41:18.630Z,11.29
2018-06-23T04:43:50.168Z,11.14
2018-06-23T04:46:21.358Z,10.79
2018-06-23T04:48:52.356Z,10.71
2018-06-23T04:51:23.634Z,10.98
2018-06-23T04:53:54.676Z,10.67
2018-06-23T04:56:25.909Z,10.95
2018-06-23T04:58:56.932Z,11.09
2018-06-23T05:01:28.079Z,11.22
2018-06-23T05:03:59.336Z,10.89
2018-06-23T05:06:30.838Z,10.95
2018-06-23T05:09:01.863Z,10.92
2018-06-23T05:11:33.569Z,10.70
2018-06-23T05:14:04.964Z,11.04
2018-06-23T05:16:36.367Z,10.91
2018-06-23T05:19:07.171Z,11.12
2018-06-23T05:21:38.277Z,10.99
2018-06-23T05:24:09.497Z,10.82
2018-06-23T05:26:40.680Z,10.96
2018-06-23T05:29:11.669Z,11.06
2018-06-23T05:31:42.932Z,10.83
2018-06-23T05:34:13.860Z,10.93
2018-06-23T05:36:44.769Z,10.69
2018-06-23T05:39:15.850Z,10.81
2018-06-23T05:41:47.359Z,10.77
2018-06-23T05:44:18.381Z,10.85
2018-06-23T05:46:49.418Z,10.78
2018-06-23T05:49:20.468Z,11.03
2018-06-23T05:51:52.118Z,10.71
2018-06-23T05:54:23.959Z,10.73
2018-06-23T05:56:55.140Z,10.73
2018-06-23T05:59:26.302Z,10.77
2018-06-23T06:01:57.418Z,10.80
2018-06-23T06:04:28.589Z,10.68
2018-06-23T06:07:00.415Z,10.96
2018-06-23T06:09:31.626Z,11.13
2018-06-23T06:12:02.997Z,11.06
2018-06-23T06:14:34.243Z,10.73
2018-06-23T06:17:25.386Z,10.84
2018-06-23T06:19:57.591Z,10.89
2018-06-23T06:22:29.872Z,11.24
2018-06-23T06:25:01.017Z,11.30
2018-06-23T06:27:32.317Z,11.36
2018-06-23T06:30:03.499Z,11.60
2018-06-23T06:32:34.667Z,11.46
2018-06-23T06:35:06.285Z,11.93
2018-06-23T06:37:38.046Z,11.81
2018-06-23T06:40:09.369Z,11.85
2018-06-23T06:42:40.841Z,11.48
2018-06-23T06:45:11.984Z,11.98
2018-06-23T06:47:44.256Z,12.10
2018-06-23T06:50:15.326Z,12.28
2018-06-23T06:52:46.744Z,11.91
2018-06-23T06:55:17.907Z,11.80
2018-06-23T06:57:49.257Z,12.03
2018-06-23T07:00:20.277Z,11.87
2018-06-23T07:02:51.642Z,11.88
2018-06-23T07:05:22.690Z,11.67
2018-06-23T07:07:53.863Z,11.92
2018-06-23T07:10:25.146Z,11.90
2018-06-23T07:12:56.205Z,11.70
2018-06-23T07:15:27.498Z,11.82
2018-06-23T07:17:58.678Z,11.91
2018-06-23T07:20:29.658Z,11.94
2018-06-23T07:23:01.145Z,11.74
2018-06-23T07:25:32.436Z,11.94
2018-06-23T07:28:03.710Z,12.27
2018-06-23T07:30:34.846Z,12.53
2018-06-23T07:33:06.415Z,12.52
2018-06-23T07:35:37.646Z,12.70
2018-06-23T07:38:08.827Z,12.52
2018-06-23T07:40:39.933Z,12.27
2018-06-23T07:43:11.092Z,12.39
2018-06-23T07:45:42.365Z,12.56
2018-06-23T07:48:14.056Z,12.08
2018-06-23T07:50:45.295Z,12.51
2018-06-23T07:53:17.685Z,12.66
2018-06-23T07:55:48.884Z,12.67
2018-06-23T07:58:20.452Z,12.42
2018-06-23T08:00:51.628Z,12.54
2018-06-23T08:03:22.872Z,12.53
2018-06-23T08:05:54.353Z,12.24
2018-06-23T08:08:25.874Z,12.32
2018-06-23T08:10:59.238Z,12.14
2018-06-23T08:13:31.478Z,12.43
2018-06-23T08:16:03.157Z,12.19
2018-06-23T08:18:34.865Z,12.27
2018-06-23T08:21:06.059Z,12.24
2018-06-23T08:23:37.791Z,12.14
2018-06-23T08:26:09.276Z,12.41
2018-06-23T08:28:41.106Z,12.15
2018-06-23T08:31:12.446Z,12.27
2018-06-23T08:33:44.123Z,12.43
2018-06-23T08:36:15.278Z,12.41
2018-06-23T08:38:46.791Z,12.15
2018-06-23T08:41:17.959Z,12.10
2018-06-23T08:43:49.442Z,12.11
2018-06-23T08:46:20.507Z,12.55
2018-06-23T08:48:51.505Z,12.16
2018-06-23T08:51:22.972Z,12.27
2018-06-23T08:53:54.323Z,12.49
2018-06-23T08:56:25.437Z,12.33
2018-06-23T08:58:56.783Z,12.20
2018-06-23T09:01:27.923Z,12.07
2018-06-23T09:03:59.010Z,12.41
2018-06-23T09:06:30.277Z,12.46
2018-06-23T09:09:05.377Z,12.37
2018-06-23T09:11:38.719Z,12.52
2018-06-23T09:14:12.943Z,12.27
2018-06-23T09:16:44.107Z,12.54
2018-06-23T09:19:15.335Z,12.27
2018-06-23T09:21:47.661Z,12.54
2018-06-23T09:24:21.340Z,12.56
2018-06-23T09:26:52.846Z,12.69
2018-06-23T09:29:23.978Z,12.57
2018-06-23T09:31:55.538Z,12.17
2018-06-23T09:34:27.301Z,12.15
2018-06-23T09:36:58.855Z,12.12
2018-06-23T09:39:30.119Z,12.03
2018-06-23T09:42:01.275Z,11.92
2018-06-23T09:44:32.509Z,12.23
2018-06-23T09:47:03.662Z,12.29
2018-06-23T09:49:34.778Z,12.32
2018-06-23T09:52:05.817Z,12.05
2018-06-23T09:54:37.901Z,12.00
2018-06-23T09:57:09.727Z,12.03
2018-06-23T09:59:42.988Z,12.20
2018-06-23T10:02:14.158Z,12.19
2018-06-23T10:04:50.858Z,12.29
2018-06-23T10:07:32.116Z,12.26
2018-06-23T10:10:03.836Z,12.38
2018-06-23T10:12:35.075Z,12.47
2018-06-23T10:15:06.237Z,12.78
2018-06-23T10:17:37.528Z,12.40
2018-06-23T10:20:08.769Z,12.32
2018-06-23T10:22:40.017Z,12.39
2018-06-23T10:25:11.283Z,12.64
2018-06-23T10:27:42.585Z,12.43
2018-06-23T10:30:13.849Z,12.37
2018-06-23T10:32:44.986Z,12.37
2018-06-23T10:35:16.327Z,12.41
2018-06-23T10:37:47.463Z,12.36
2018-06-23T10:40:18.532Z,12.36
2018-06-23T10:42:49.958Z,12.37
2018-06-23T10:45:22.351Z,12.62
2018-06-23T10:47:53.423Z,12.42
2018-06-23T10:50:24.712Z,12.49
2018-06-23T10:52:55.750Z,12.39
2018-06-23T10:55:26.761Z,12.34
2018-06-23T10:57:58.380Z,12.63
2018-06-23T11:00:29.638Z,12.66
2018-06-23T11:03:00.895Z,13.42
2018-06-23T11:05:32.104Z,12.80
2018-06-23T11:08:05.100Z,12.86
2018-06-23T11:10:36.499Z,12.84
2018-06-23T11:13:08.118Z,12.48
2018-06-23T11:15:39.417Z,12.52
2018-06-23T11:18:10.601Z,12.53
2018-06-23T11:20:41.963Z,12.37
2018-06-23T11:23:13.050Z,12.19
2018-06-23T11:25:44.816Z,12.31
2018-06-23T11:28:16.245Z,12.28
2018-06-23T11:30:48.170Z,12.12
2018-06-23T11:33:20.973Z,12.35
2018-06-23T11:35:52.552Z,12.23
2018-06-23T11:38:23.750Z,11.88
2018-06-23T11:40:55.277Z,11.96
2018-06-23T11:43:27.655Z,12.00
2018-06-23T11:45:58.974Z,12.06
2018-06-23T11:48:30.091Z,11.76
2018-06-23T11:51:01.351Z,12.32
2018-06-23T11:53:32.627Z,12.37
2018-06-23T11:56:03.767Z,12.18
2018-06-23T11:58:35.512Z,12.34
2018-06-23T12:01:07.440Z,12.27
2018-06-23T12:03:38.765Z,12.21
2018-06-23T12:06:10.163Z,12.04
2018-06-23T12:08:42.660Z,12.02
2018-06-23T12:11:14.021Z,12.06
2018-06-23T12:13:45.664Z,11.90
2018-06-23T12:16:19.171Z,11.95
2018-06-23T12:18:56.280Z,12.00
2018-06-23T12:21:28.217Z,12.14
2018-06-23T12:24:08.386Z,12.21
2018-06-23T12:26:49.458Z,12.48
2018-06-23T12:29:24.784Z,12.42
2018-06-23T12:31:56.681Z,12.45
2018-06-23T12:34:28.283Z,12.20
2018-06-23T12:36:59.621Z,12.50
2018-06-23T12:39:30.796Z,12.34
2018-06-23T12:42:03.642Z,12.30
2018-06-23T12:44:42.434Z,12.36
2018-06-23T12:47:16.886Z,12.45
2018-06-23T12:49:51.000Z,12.46
2018-06-23T12:52:23.393Z,12.29
2018-06-23T12:54:54.749Z,12.25
2018-06-23T12:57:26.132Z,12.40
2018-06-23T12:59:57.845Z,12.22
2018-06-23T13:02:29.226Z,12.08
2018-06-23T13:05:00.719Z,12.10
2018-06-23T13:07:32.293Z,12.13
2018-06-23T13:10:04.180Z,12.03
2018-06-23T13:12:35.601Z,12.05
2018-06-23T13:15:07.336Z,12.22
2018-06-23T13:17:38.800Z,12.22
2018-06-23T13:20:10.386Z,12.43
2018-06-23T13:22:42.049Z,12.30
2018-06-23T13:25:13.354Z,12.14
2018-06-23T13:27:44.701Z,12.52
2018-06-23T13:30:16.325Z,12.52
2018-06-23T13:32:48.148Z,12.53
2018-06-23T13:35:20.577Z,12.58
2018-06-23T13:37:55.093Z,12.59
2018-06-23T13:43:17.116Z,12.86
2018-06-23T13:45:51.128Z,12.90
2018-06-23T13:48:22.474Z,13.19
2018-06-23T13:50:53.673Z,13.20
2018-06-23T13:53:25.067Z,13.04
2018-06-23T13:55:56.822Z,13.10
2018-06-23T13:58:28.578Z,12.97
2018-06-23T14:00:59.906Z,13.08
2018-06-23T14:03:31.712Z,12.92
2018-06-23T14:06:03.319Z,13.13
2018-06-23T14:08:34.703Z,13.24
2018-06-23T14:11:05.966Z,12.83
2018-06-23T14:13:37.375Z,12.59
2018-06-23T14:16:08.707Z,12.62
2018-06-23T14:18:40.022Z,12.56
2018-06-23T14:21:11.175Z,12.38
2018-06-23T14:23:42.559Z,12.03
2018-06-23T14:26:14.314Z,11.91
2018-06-23T14:28:47.673Z,11.67
2018-06-23T14:31:19.659Z,11.60
2018-06-23T14:33:51.007Z,11.48
2018-06-23T14:36:22.245Z,11.59
2018-06-23T14:38:53.718Z,11.57
2018-06-23T14:41:26.987Z,12.01
2018-06-23T14:43:58.307Z,12.35
2018-06-23T14:46:29.534Z,12.30
2018-06-23T14:49:01.679Z,12.48
2018-06-23T14:51:33.679Z,12.72
2018-06-23T14:54:05.135Z,13.03
2018-06-23T14:56:38.797Z,12.91
2018-06-23T14:59:12.478Z,13.06
2018-06-23T15:01:43.592Z,12.91
2018-06-23T15:04:14.844Z,12.92
2018-06-23T15:06:46.539Z,13.10
2018-06-23T15:09:28.494Z,13.14
2018-06-23T15:12:10.578Z,13.07
2018-06-23T15:14:42.071Z,13.13
2018-06-23T15:17:13.947Z,13.27
2018-06-23T15:19:46.670Z,13.10
2018-06-23T15:22:18.136Z,13.09
2018-06-23T15:24:49.731Z,12.97
2018-06-23T15:27:22.372Z,13.15
2018-06-23T15:29:54.107Z,12.94
2018-06-23T15:32:25.933Z,12.80
2018-06-23T15:34:57.961Z,12.73
2018-06-23T15:37:30.630Z,12.22
2018-06-23T15:40:01.938Z,12.40
2018-06-23T15:42:33.689Z,12.55
2018-06-23T15:45:04.886Z,12.62
2018-06-23T15:47:36.504Z,12.58
2018-06-23T15:50:07.753Z,12.73
2018-06-23T15:52:39.442Z,12.39
2018-06-23T15:55:10.990Z,12.49
2018-06-23T15:57:42.660Z,12.42
2018-06-23T16:00:14.130Z,12.50
2018-06-23T16:02:45.596Z,12.45
2018-06-23T16:05:16.990Z,12.66
2018-06-23T16:07:48.526Z,12.61
2018-06-23T16:10:23.568Z,12.32
2018-06-23T16:12:55.980Z,12.18
2018-06-23T16:15:27.532Z,12.26
2018-06-23T16:17:59.143Z,12.52
2018-06-23T16:20:30.349Z,12.44
2018-06-23T16:23:01.778Z,12.50
2018-06-23T16:25:33.232Z,12.58
2018-06-23T16:28:05.097Z,12.34
2018-06-23T16:30:36.392Z,12.47
2018-06-23T16:33:08.341Z,12.50
2018-06-23T16:35:40.052Z,12.72
2018-06-23T16:38:12.145Z,13.00
2018-06-23T16:40:43.566Z,12.59
2018-06-23T16:43:15.175Z,12.65
2018-06-23T16:45:46.590Z,12.56
2018-06-23T16:48:21.633Z,12.48
2018-06-23T16:50:52.784Z,12.48
2018-06-23T16:53:25.478Z,12.55
2018-06-23T16:55:59.277Z,12.40
2018-06-23T16:58:33.115Z,12.42
2018-06-23T17:01:04.826Z,12.56
2018-06-23T17:03:36.413Z,12.58
2018-06-23T17:06:07.528Z,12.61
2018-06-23T17:08:38.963Z,12.60
2018-06-23T17:11:10.409Z,12.45
2018-06-23T17:13:42.151Z,12.33
2018-06-23T17:16:13.652Z,12.18
2018-06-23T17:18:46.724Z,12.27
2018-06-23T17:21:18.863Z,12.37
2018-06-23T17:23:50.433Z,12.23
2018-06-23T17:26:22.834Z,12.08
2018-06-23T17:28:54.500Z,12.12
2018-06-23T17:31:26.118Z,12.12
2018-06-23T17:33:57.923Z,12.09
2018-06-23T17:36:29.144Z,12.05
2018-06-23T17:39:00.249Z,12.07
2018-06-23T17:41:31.752Z,12.15
2018-06-23T17:44:04.895Z,12.14
2018-06-23T17:46:36.189Z,11.95
2018-06-23T17:49:07.576Z,12.04
2018-06-23T17:51:38.929Z,12.18
2018-06-23T17:54:10.551Z,12.37
2018-06-23T17:56:42.569Z,12.60
2018-06-23T17:59:14.322Z,12.57
2018-06-23T18:01:45.658Z,12.61
2018-06-23T18:04:17.234Z,12.51
2018-06-23T18:06:48.770Z,12.65
2018-06-23T18:09:20.085Z,12.71
2018-06-23T18:11:51.729Z,12.71
2018-06-23T18:14:22.919Z,12.61
2018-06-23T18:16:54.293Z,12.55
2018-06-23T18:19:26.432Z,12.49
2018-06-23T18:21:57.758Z,12.54
2018-06-23T18:24:29.517Z,12.53
2018-06-23T18:27:00.914Z,12.54
2018-06-23T18:29:32.344Z,12.50
2018-06-23T18:32:03.574Z,12.46
2018-06-23T18:34:35.368Z,12.59
2018-06-23T18:37:16.792Z,12.44
2018-06-23T18:39:48.843Z,12.40
2018-06-23T18:42:20.456Z,12.39
2018-06-23T18:44:52.113Z,12.41
2018-06-23T18:47:23.466Z,12.39
2018-06-23T18:49:59.914Z,12.29
2018-06-23T18:52:32.036Z,12.18
2018-06-23T18:55:04.660Z,12.34
2018-06-23T18:57:36.227Z,12.29
2018-06-23T19:00:09.265Z,12.39
2018-06-23T19:02:40.924Z,12.36
2018-06-23T19:05:12.644Z,12.32
2018-06-23T19:07:43.966Z,12.42
2018-06-23T19:10:15.380Z,12.40
2018-06-23T19:12:47.211Z,12.36
2018-06-23T19:15:18.622Z,12.27
2018-06-23T19:17:50.018Z,12.42
2018-06-23T19:20:22.131Z,12.06
2018-06-23T19:22:53.691Z,12.38
2018-06-23T19:25:25.118Z,12.25
2018-06-23T19:27:57.131Z,12.19
2018-06-23T19:30:28.863Z,12.19
2018-06-23T19:33:00.559Z,12.18
2018-06-23T19:35:32.230Z,12.15
2018-06-23T19:38:03.784Z,12.14
2018-06-23T19:40:35.194Z,12.12
2018-06-23T19:43:06.648Z,12.15
2018-06-23T19:45:37.928Z,12.23
2018-06-23T19:48:09.514Z,12.22
2018-06-23T19:50:40.963Z,12.19
2018-06-23T19:53:12.433Z,12.24
2018-06-23T19:55:43.825Z,12.28
2018-06-23T19:58:15.274Z,12.19
2018-06-23T20:00:47.342Z,12.09
2018-06-23T20:03:19.278Z,12.22
2018-06-23T20:05:50.473Z,12.32
2018-06-23T20:08:21.889Z,12.50
2018-06-23T20:10:54.205Z,12.58
2018-06-23T20:13:26.600Z,12.60
2018-06-23T20:15:58.324Z,12.52
2018-06-23T20:18:29.683Z,12.54
2018-06-23T20:21:01.073Z,12.55
2018-06-23T20:23:32.520Z,12.55
2018-06-23T20:26:03.901Z,12.75
2018-06-23T20:28:35.144Z,12.32
2018-06-23T20:31:06.468Z,12.54
2018-06-23T20:33:37.769Z,12.59
2018-06-23T20:36:09.042Z,12.77
2018-06-23T20:38:40.395Z,12.76
2018-06-23T20:41:11.629Z,12.81
2018-06-23T20:43:42.792Z,12.80
2018-06-23T20:46:15.199Z,12.92
2018-06-23T20:48:46.528Z,12.92
2018-06-23T20:51:18.481Z,12.92
2018-06-23T20:53:49.693Z,12.77
2018-06-23T20:56:21.029Z,12.77
2018-06-23T20:58:52.402Z,12.82
2018-06-23T21:01:23.769Z,12.81
2018-06-23T21:03:55.148Z,12.85
2018-06-23T21:06:26.402Z,12.88
2018-06-23T21:08:57.648Z,12.67
2018-06-23T21:11:29.907Z,12.80
2018-06-23T21:14:01.506Z,12.81
2018-06-23T21:16:32.910Z,12.80
2018-06-23T21:19:04.086Z,12.71
2018-06-23T21:21:35.492Z,12.65
2018-06-23T21:24:06.908Z,12.73
2018-06-23T21:26:37.944Z,12.73
2018-06-23T21:29:09.304Z,12.80
2018-06-23T21:31:40.420Z,12.78
2018-06-23T21:34:11.659Z,12.74
2018-06-23T21:36:42.958Z,12.73
2018-06-23T21:39:14.223Z,12.79
2018-06-23T21:41:45.733Z,12.86
2018-06-23T21:44:16.895Z,12.81
2018-06-23T21:46:48.237Z,12.63
2018-06-23T21:49:19.719Z,12.58
2018-06-23T21:51:50.738Z,12.65
2018-06-23T21:54:22.100Z,12.69
2018-06-23T21:56:53.326Z,12.70
2018-06-23T21:59:24.727Z,12.57
2018-06-23T22:01:55.997Z,12.57
2018-06-23T22:04:27.473Z,12.52
2018-06-23T22:06:58.559Z,12.44
2018-06-23T22:09:29.846Z,12.20
2018-06-23T22:12:01.115Z,12.42
2018-06-23T22:14:32.726Z,12.29
2018-06-23T22:17:04.151Z,12.14
2018-06-23T22:19:35.630Z,12.19
2018-06-23T22:22:06.922Z,12.07
2018-06-23T22:24:38.350Z,12.37
2018-06-23T22:27:09.450Z,12.60
2018-06-23T22:29:40.595Z,12.70
2018-06-23T22:32:11.839Z,12.72
2018-06-23T22:34:42.979Z,12.71
2018-06-23T22:37:14.113Z,12.35
2018-06-23T22:39:45.654Z,12.36
2018-06-23T22:42:16.923Z,12.46
2018-06-23T22:44:48.420Z,12.42
2018-06-23T22:47:20.139Z,12.60
2018-06-23T22:49:51.435Z,12.60
2018-06-23T22:52:22.914Z,12.63
2018-06-23T22:54:53.969Z,12.67
2018-06-23T22:57:25.409Z,12.66
2018-06-23T22:59:56.966Z,12.61
2018-06-23T23:02:28.239Z,12.68
2018-06-23T23:04:59.672Z,12.77
2018-06-23T23:07:30.750Z,12.71
2018-06-23T23:10:01.880Z,12.70
2018-06-23T23:12:33.148Z,12.66
2018-06-23T23:15:05.245Z,12.57
2018-06-23T23:17:36.349Z,12.62
2018-06-23T23:20:07.790Z,12.56
2018-06-23T23:22:39.093Z,12.61
2018-06-23T23:25:10.288Z,12.72
2018-06-23T23:27:41.555Z,12.56
2018-06-23T23:30:13.189Z,12.57
2018-06-23T23:32:44.572Z,12.63
2018-06-23T23:35:15.815Z,12.64
2018-06-23T23:37:47.107Z,12.65
2018-06-23T23:40:18.416Z,12.66
2018-06-23T23:42:49.753Z,12.71
2018-06-23T23:45:21.290Z,12.59
2018-06-23T23:47:52.530Z,12.63
2018-06-23T23:50:23.973Z,12.63
2018-06-23T23:52:55.726Z,12.68
2018-06-23T23:55:27.007Z,12.74
2018-06-23T23:57:58.409Z,12.70
